Time;durP1;ratioP1;P1;durP2;ratioP2;P2;SDS_P1;SDS_P2;PMS_P1;PMS_P2;Temp;Humidity;BMP_temperature;BMP_pressure;BME280_temperature;BME280_humidity;BME280_pressure;Samples;Min_cycle;Max_cycle;Signal;HPM_P1;HPM_P2
2023/06/13 00:01:30;;;;;;;3.83;2.88;;;;;;;17.69;40.29;96391.16;5005102;28;20051;-86
2023/06/13 00:04:01;;;;;;;4.57;2.83;;;;;;;17.65;40.27;96388.16;5004562;28;20042;-84
2023/06/13 00:06:30;;;;;;;6.90;3.35;;;;;;;17.60;40.45;96393.34;5003702;28;20112;-85
2023/06/13 00:08:58;;;;;;;5.40;3.00;;;;;;;17.55;40.46;96390.56;5003065;28;20065;-83
2023/06/13 00:11:27;;;;;;;3.95;3.15;;;;;;;17.57;40.51;96393.00;5001886;28;20494;-84
2023/06/13 00:13:55;;;;;;;6.38;2.97;;;;;;;17.59;40.46;96393.56;5002171;28;20058;-85
2023/06/13 00:16:25;;;;;;;2.90;2.67;;;;;;;17.60;40.52;96395.97;5002030;28;20050;-85
2023/06/13 00:18:53;;;;;;;4.22;2.97;;;;;;;17.55;40.44;96393.22;5002375;28;20106;-85
2023/06/13 00:21:21;;;;;;;3.97;2.78;;;;;;;17.51;40.54;96397.34;5006095;28;20057;-85
2023/06/13 00:23:49;;;;;;;3.35;2.60;;;;;;;17.50;40.64;96396.53;5005903;28;20054;-87
2023/06/13 00:26:17;;;;;;;2.90;2.60;;;;;;;17.52;41.02;96395.53;5006673;28;20046;-86
2023/06/13 00:28:46;;;;;;;3.15;2.70;;;;;;;17.52;41.01;96396.31;5004841;28;20050;-87
2023/06/13 00:31:14;;;;;;;9.30;2.90;;;;;;;17.54;40.95;96388.97;5005145;28;20113;-85
2023/06/13 00:33:43;;;;;;;2.80;2.50;;;;;;;17.53;41.02;96387.38;5005081;28;20042;-86
2023/06/13 00:36:16;;;;;;;3.90;2.40;;;;;;;17.50;40.86;96393.09;5003936;28;20046;-83
2023/06/13 00:38:44;;;;;;;3.38;2.65;;;;;;;17.51;41.14;96386.78;5005067;28;20047;-87
2023/06/13 00:41:12;;;;;;;4.00;2.75;;;;;;;17.54;40.75;96393.47;5005099;28;20058;-83
2023/06/13 00:43:40;;;;;;;5.45;2.42;;;;;;;17.50;41.03;96395.75;5004491;28;20050;-82
2023/06/13 00:46:09;;;;;;;6.55;2.88;;;;;;;17.44;41.19;96392.19;5004793;28;20050;-85
2023/06/13 00:48:39;;;;;;;2.55;2.35;;;;;;;17.38;41.26;96389.66;5004389;28;20054;-85
2023/06/13 00:51:09;;;;;;;3.03;2.53;;;;;;;17.33;41.00;96382.44;5003220;28;20046;-84
2023/06/13 00:53:37;;;;;;;3.95;2.67;;;;;;;17.27;41.40;96384.19;5002635;28;20502;-84
2023/06/13 00:56:06;;;;;;;4.82;2.95;;;;;;;17.21;41.36;96379.81;5001687;28;20061;-84
2023/06/13 00:58:35;;;;;;;5.30;2.70;;;;;;;17.14;41.67;96379.09;5002481;28;20051;-86
2023/06/13 01:01:05;;;;;;;2.88;2.65;;;;;;;17.10;41.79;96372.72;5001435;28;20054;-85
2023/06/13 01:03:35;;;;;;;5.13;3.30;;;;;;;17.09;41.87;96377.16;5002097;28;20057;-88
2023/06/13 01:06:03;;;;;;;7.53;3.78;;;;;;;17.07;41.68;96381.06;5001276;28;20064;-87
2023/06/13 01:08:31;;;;;;;3.38;3.00;;;;;;;17.01;42.13;96368.78;5000993;28;20437;-89
2023/06/13 01:11:05;;;;;;;3.30;2.83;;;;;;;16.94;42.29;96368.91;5001305;28;20504;-86
2023/06/13 01:13:36;;;;;;;3.92;2.42;;;;;;;16.89;42.34;96366.94;5002782;28;20105;-85
2023/06/13 01:16:11;;;;;;;4.07;2.63;;;;;;;16.86;42.58;96367.41;5003060;28;20054;-85
2023/06/13 01:18:44;;;;;;;5.88;3.00;;;;;;;16.83;42.76;96369.69;5002547;28;20051;-86
2023/06/13 01:21:13;;;;;;;7.82;2.90;;;;;;;16.80;42.60;96368.31;5002624;28;20116;-89
2023/06/13 01:23:49;;;;;;;4.82;2.58;;;;;;;16.77;42.99;96363.47;5002149;28;20047;-84
2023/06/13 01:26:29;;;;;;;4.75;2.95;;;;;;;16.78;43.10;96369.56;5002474;28;20117;-84
2023/06/13 01:28:59;;;;;;;3.70;2.47;;;;;;;16.79;42.93;96356.16;5002000;28;20051;-85
2023/06/13 01:31:28;;;;;;;4.45;2.85;;;;;;;16.88;43.19;96352.19;5001701;28;20054;-87
2023/06/13 01:33:57;;;;;;;3.33;2.55;;;;;;;16.92;43.07;96351.72;5003653;28;20077;-88
2023/06/13 01:36:25;;;;;;;6.93;3.20;;;;;;;16.93;42.93;96348.06;5020427;28;20038;-86
2023/06/13 01:38:54;;;;;;;6.95;2.88;;;;;;;16.92;42.84;96347.25;5020574;28;20042;-86
2023/06/13 01:41:21;;;;;;;5.47;2.47;;;;;;;16.93;42.96;96345.44;5011901;28;20062;-84
2023/06/13 01:43:49;;;;;;;3.35;2.58;;;;;;;16.97;43.01;96346.59;5007869;28;20097;-87
2023/06/13 01:46:26;;;;;;;4.00;2.80;;;;;;;17.01;42.90;96348.53;5007447;28;20046;-84
2023/06/13 01:49:17;;;;;;;4.07;2.70;;;;;;;17.01;42.65;96343.25;5007569;28;20054;-84
2023/06/13 01:51:51;;;;;;;4.40;2.80;;;;;;;16.98;42.92;96348.19;5006945;28;20054;-86
2023/06/13 01:54:22;;;;;;;3.92;2.40;;;;;;;16.99;42.69;96344.50;5006660;28;20046;-84
2023/06/13 01:56:56;;;;;;;5.75;2.80;;;;;;;16.97;42.87;96346.59;5005935;28;20051;-87
2023/06/13 01:59:26;;;;;;;3.10;2.75;;;;;;;16.93;42.76;96351.50;5006420;28;20058;-85
2023/06/13 02:01:57;;;;;;;11.65;3.28;;;;;;;16.93;42.88;96346.22;5007222;28;20047;-87
2023/06/13 02:04:26;;;;;;;3.15;2.45;;;;;;;16.92;42.78;96343.81;5006681;28;20130;-87
2023/06/13 02:06:55;;;;;;;3.53;2.53;;;;;;;16.85;42.90;96339.44;5006279;28;20050;-85
2023/06/13 02:09:22;;;;;;;2.95;2.72;;;;;;;16.79;43.13;96340.34;5004772;28;20046;-87
2023/06/13 02:11:50;;;;;;;3.83;2.88;;;;;;;16.73;43.18;96346.53;5003881;28;20120;-86
2023/06/13 02:14:18;;;;;;;3.35;2.67;;;;;;;16.70;43.36;96339.06;5002793;28;20074;-82
2023/06/13 02:16:46;;;;;;;5.05;2.85;;;;;;;16.66;43.40;96345.81;5002940;28;20529;-83
2023/06/13 02:19:15;;;;;;;3.05;2.60;;;;;;;16.60;43.58;96341.47;5003437;28;20062;-82
2023/06/13 02:21:45;;;;;;;4.75;2.83;;;;;;;16.56;43.71;96348.22;5002682;28;20457;-88
2023/06/13 02:24:14;;;;;;;5.82;2.40;;;;;;;16.53;43.55;96344.19;5001376;28;20050;-84
2023/06/13 02:26:44;;;;;;;4.50;2.72;;;;;;;16.50;43.51;96341.19;5002936;28;20051;-83
2023/06/13 02:29:11;;;;;;;5.53;2.78;;;;;;;16.50;43.64;96341.19;5003304;28;20054;-84
2023/06/13 02:31:39;;;;;;;2.90;2.45;;;;;;;16.48;43.67;96336.16;5002190;28;20050;-80
2023/06/13 02:34:07;;;;;;;4.85;2.65;;;;;;;16.42;43.90;96335.25;5002045;28;20490;-86
2023/06/13 02:36:37;;;;;;;3.58;2.90;;;;;;;16.37;43.81;96340.34;5001838;28;20046;-82
2023/06/13 02:39:07;;;;;;;5.55;2.95;;;;;;;16.31;43.98;96328.13;5002477;28;20046;-80
2023/06/13 02:41:35;;;;;;;5.35;2.90;;;;;;;16.25;44.07;96329.00;5001284;28;20561;-84
2023/06/13 02:44:03;;;;;;;3.20;2.75;;;;;;;16.19;44.26;96330.69;5001237;28;20050;-83
2023/06/13 02:46:31;;;;;;;3.80;2.72;;;;;;;16.14;44.26;96332.41;5001619;28;20054;-84
2023/06/13 02:48:58;;;;;;;4.90;2.50;;;;;;;16.08;44.32;96323.56;5001373;28;20042;-81
2023/06/13 02:51:26;;;;;;;3.47;2.47;;;;;;;16.02;44.44;96329.72;5000569;28;20065;-82
2023/06/13 02:53:56;;;;;;;3.60;2.78;;;;;;;15.97;44.48;96327.75;5000859;28;20053;-82
2023/06/13 02:56:23;;;;;;;6.40;2.78;;;;;;;15.95;44.38;96329.81;5001098;28;20530;-87
2023/06/13 02:58:51;;;;;;;4.95;2.97;;;;;;;15.93;44.47;96323.97;5001714;28;20062;-88
2023/06/13 03:01:19;;;;;;;3.30;2.75;;;;;;;15.93;44.49;96326.59;5004225;28;20097;-86
2023/06/13 03:03:48;;;;;;;4.18;2.60;;;;;;;15.93;44.51;96325.78;5004652;28;20050;-87
2023/06/13 03:06:17;;;;;;;4.25;3.15;;;;;;;15.90;44.76;96331.50;5006130;28;20068;-84
2023/06/13 03:08:45;;;;;;;3.63;2.65;;;;;;;15.85;44.52;96324.25;5016781;28;20057;-85
2023/06/13 03:11:14;;;;;;;3.20;2.80;;;;;;;15.82;44.65;96325.50;5014598;28;20042;-86
2023/06/13 03:13:42;;;;;;;5.57;3.15;;;;;;;15.81;44.86;96323.91;5011739;28;20105;-86
2023/06/13 03:16:10;;;;;;;3.33;2.75;;;;;;;15.80;44.89;96329.38;5007500;28;20050;-87
2023/06/13 03:18:38;;;;;;;3.17;2.70;;;;;;;15.78;44.91;96336.69;5001954;28;20421;-85
2023/06/13 03:21:06;;;;;;;3.70;2.53;;;;;;;15.72;45.10;96335.75;5003791;28;20104;-86
2023/06/13 03:23:33;;;;;;;3.08;2.50;;;;;;;15.68;45.19;96331.09;5004381;28;20047;-85
2023/06/13 03:26:03;;;;;;;8.05;3.28;;;;;;;15.64;45.14;96334.19;5004313;28;20497;-88
2023/06/13 03:28:32;;;;;;;4.65;2.67;;;;;;;15.64;45.38;96344.72;5003569;28;20046;-84
2023/06/13 03:31:00;;;;;;;4.93;2.85;;;;;;;15.64;45.24;96336.81;5003660;28;20104;-86
2023/06/13 03:33:28;;;;;;;4.40;2.50;;;;;;;15.65;45.18;96330.56;5002833;28;20070;-86
2023/06/13 03:35:56;;;;;;;4.18;2.70;;;;;;;15.64;45.07;96331.56;5003178;28;20078;-82
2023/06/13 03:38:27;;;;;;;6.65;2.80;;;;;;;15.62;45.23;96336.22;5002995;28;20375;-88
2023/06/13 03:40:55;;;;;;;5.40;2.58;;;;;;;15.60;45.11;96332.22;5002776;28;20073;-85
2023/06/13 03:43:23;;;;;;;4.47;2.83;;;;;;;15.55;45.10;96338.16;5002200;28;20050;-88
2023/06/13 03:45:53;;;;;;;4.82;2.78;;;;;;;15.53;45.11;96342.03;5001890;28;20054;-86
2023/06/13 03:48:20;;;;;;;7.57;3.17;;;;;;;15.49;45.16;96339.00;5002524;28;20466;-86
2023/06/13 03:50:48;;;;;;;6.97;2.92;;;;;;;15.48;45.25;96341.84;5000742;28;20085;-85
2023/06/13 03:53:16;;;;;;;3.42;2.53;;;;;;;15.47;45.17;96338.44;5001083;28;20093;-84
2023/06/13 03:55:45;;;;;;;3.13;2.63;;;;;;;15.47;45.02;96338.44;5001408;28;20050;-85
2023/06/13 03:58:14;;;;;;;3.42;2.80;;;;;;;15.45;44.99;96340.47;4999954;28;20077;-85
2023/06/13 04:00:44;;;;;;;3.20;2.90;;;;;;;15.44;45.21;96338.88;5000519;28;20097;-82
2023/06/13 04:03:13;;;;;;;5.22;2.80;;;;;;;15.44;45.11;96350.19;5001890;28;20050;-85
2023/06/13 04:05:41;;;;;;;6.15;2.97;;;;;;;15.49;44.94;96351.34;5002789;28;20137;-83
2023/06/13 04:08:10;;;;;;;3.60;2.70;;;;;;;15.55;44.81;96356.53;5003109;28;20046;-87
2023/06/13 04:10:38;;;;;;;3.50;2.67;;;;;;;15.57;44.74;96359.75;5003170;28;20049;-85
2023/06/13 04:13:05;;;;;;;4.65;2.47;;;;;;;15.56;44.48;96355.50;5002661;28;20080;-87
2023/06/13 04:15:33;;;;;;;4.93;2.83;;;;;;;15.55;44.50;96355.75;5001239;28;20490;-85
2023/06/13 04:18:01;;;;;;;7.38;2.97;;;;;;;15.56;44.30;96354.72;4993161;28;20069;-82
2023/06/13 04:20:30;;;;;;;3.47;2.47;;;;;;;15.56;44.41;96358.13;4996998;28;20105;-84
2023/06/13 04:22:58;;;;;;;3.53;2.55;;;;;;;15.58;44.40;96360.56;4982306;28;20074;-82
2023/06/13 04:25:27;;;;;;;4.88;2.70;;;;;;;15.54;44.23;96352.28;4988719;28;20039;-79
2023/06/13 04:27:58;;;;;;;4.47;2.75;;;;;;;15.49;43.97;96356.63;4997864;23;20129;-77
2023/06/13 04:30:28;;;;;;;6.60;2.92;;;;;;;15.45;44.10;96357.03;4975649;28;20082;-78
2023/06/13 04:32:57;;;;;;;4.60;3.40;;;;;;;15.45;44.14;96359.66;4983133;28;20134;-78
2023/06/13 04:35:25;;;;;;;8.95;3.00;;;;;;;15.45;44.14;96356.25;4970845;28;20093;-76
2023/06/13 04:37:56;;;;;;;4.53;2.85;;;;;;;15.44;44.27;96365.16;4973671;28;20130;-76
2023/06/13 04:40:31;;;;;;;3.47;2.53;;;;;;;15.43;44.47;96356.44;4973940;28;20403;-75
2023/06/13 04:43:03;;;;;;;5.38;3.13;;;;;;;15.49;44.29;96356.63;4970310;28;20129;-75
2023/06/13 04:45:33;;;;;;;9.25;2.80;;;;;;;15.53;44.21;96363.84;4982298;28;20056;-77
2023/06/13 04:48:03;;;;;;;5.53;2.75;;;;;;;15.53;44.08;96363.84;4993847;28;20105;-78
2023/06/13 04:50:33;;;;;;;4.57;3.10;;;;;;;15.56;44.14;96359.97;4977522;28;20066;-77
2023/06/13 04:53:02;;;;;;;4.60;3.00;;;;;;;15.50;44.38;96363.47;4973665;28;20046;-78
2023/06/13 04:55:32;;;;;;;6.30;3.10;;;;;;;15.50;44.17;96364.25;4977656;28;20051;-78
2023/06/13 04:58:03;;;;;;;5.40;2.80;;;;;;;15.53;44.36;96357.78;4955778;28;20059;-78
2023/06/13 05:00:31;;;;;;;5.95;2.75;;;;;;;15.56;44.25;96355.50;4974927;28;20055;-79
2023/06/13 05:03:00;;;;;;;6.43;3.20;;;;;;;15.58;44.03;96366.59;4980322;28;20082;-78
2023/06/13 05:05:28;;;;;;;4.28;2.97;;;;;;;15.60;43.91;96353.25;4983498;28;20422;-78
2023/06/13 05:07:59;;;;;;;4.75;2.90;;;;;;;15.62;44.02;96362.53;5000358;28;20051;-78
2023/06/13 05:10:29;;;;;;;6.28;2.95;;;;;;;15.61;44.31;96366.19;4996583;28;20106;-78
2023/06/13 05:12:57;;;;;;;4.10;2.95;;;;;;;15.65;43.80;96350.75;4982692;28;20577;-79
2023/06/13 05:15:25;;;;;;;6.55;3.50;;;;;;;15.68;43.95;96352.16;4990576;28;20066;-78
2023/06/13 05:17:54;;;;;;;4.85;3.60;;;;;;;15.68;43.84;96346.88;4988024;28;20113;-78
2023/06/13 05:20:27;;;;;;;4.53;2.85;;;;;;;15.71;44.04;96351.72;4986791;28;20051;-78
2023/06/13 05:22:56;;;;;;;6.32;3.47;;;;;;;15.75;43.88;96345.03;4980062;28;20054;-79
2023/06/13 05:25:24;;;;;;;4.95;3.60;;;;;;;15.75;43.83;96360.81;4996451;28;20050;-77
2023/06/13 05:27:57;;;;;;;7.75;3.67;;;;;;;15.77;43.73;96350.88;4978885;28;20069;-80
2023/06/13 05:30:25;;;;;;;6.25;3.13;;;;;;;15.79;43.54;96356.72;4984096;28;20043;-80
2023/06/13 05:32:53;;;;;;;4.43;3.65;;;;;;;15.79;43.62;96351.47;4990247;28;20051;-78
2023/06/13 05:38:12;;;;;;;4.20;3.20;;;;;;;15.86;43.48;96367.97;4908854;29;20088;-84
2023/06/13 05:40:40;;;;;;;5.68;2.70;;;;;;;15.88;43.28;96373.81;4924451;29;20052;-83
2023/06/13 05:43:10;;;;;;;6.30;3.25;;;;;;;15.89;42.97;96377.22;4931567;29;20508;-80
2023/06/13 05:45:37;;;;;;;6.10;3.20;;;;;;;15.87;43.08;96380.06;4920133;29;20079;-80
2023/06/13 05:48:05;;;;;;;4.70;2.92;;;;;;;15.88;43.04;96380.91;4918829;29;20104;-78
2023/06/13 05:50:33;;;;;;;8.25;3.00;;;;;;;15.86;43.14;96371.38;4919841;29;20058;-79
2023/06/13 05:53:01;;;;;;;6.43;2.85;;;;;;;15.90;43.20;96382.28;4913153;29;20556;-79
2023/06/13 05:55:28;;;;;;;8.27;3.50;;;;;;;15.93;42.97;96373.13;4919168;29;20166;-79
2023/06/13 05:57:56;;;;;;;5.80;3.35;;;;;;;15.97;42.85;96375.09;4920536;29;20476;-79
2023/06/13 06:00:25;;;;;;;3.35;2.80;;;;;;;16.06;42.81;96362.44;4919935;29;20048;-79
2023/06/13 06:02:52;;;;;;;7.30;3.00;;;;;;;16.12;42.90;96358.13;4919055;29;20099;-79
2023/06/13 06:05:21;;;;;;;6.72;3.05;;;;;;;16.18;42.62;96357.22;4918775;29;20463;-78
2023/06/13 06:07:48;;;;;;;5.97;3.00;;;;;;;16.22;42.49;96361.03;4919138;29;20070;-79
2023/06/13 06:10:16;;;;;;;11.93;3.65;;;;;;;16.25;42.35;96350.88;4919433;29;20079;-79
2023/06/13 06:12:44;;;;;;;3.33;2.88;;;;;;;16.28;42.14;96349.59;4909764;29;20056;-80
2023/06/13 06:15:12;;;;;;;8.80;3.53;;;;;;;16.31;41.87;96361.50;4919522;29;20056;-80
2023/06/13 06:17:41;;;;;;;4.40;2.88;;;;;;;16.34;41.91;96356.63;4919154;29;20048;-80
2023/06/13 06:20:10;;;;;;;6.40;2.78;;;;;;;16.38;41.82;96360.41;4917325;29;20052;-81
2023/06/13 06:22:37;;;;;;;5.20;3.13;;;;;;;16.43;41.58;96365.78;4918950;29;20502;-80
2023/06/13 06:25:08;;;;;;;5.40;3.70;;;;;;;16.48;41.78;96365.91;4918324;29;20044;-79
2023/06/13 06:27:36;;;;;;;6.35;3.05;;;;;;;16.55;41.63;96384.28;4917786;29;20079;-79
2023/06/13 06:30:05;;;;;;;6.22;3.17;;;;;;;16.56;41.11;96372.69;4918332;29;20579;-79
2023/06/13 06:32:32;;;;;;;3.42;2.92;;;;;;;16.58;41.03;96365.38;4918815;29;20058;-79
2023/06/13 06:35:03;;;;;;;5.18;2.90;;;;;;;16.66;41.02;96366.88;4917461;29;20055;-79
2023/06/13 06:37:32;;;;;;;3.22;2.45;;;;;;;16.75;40.77;96368.19;4917689;29;20059;-78
2023/06/13 06:39:59;;;;;;;5.28;2.95;;;;;;;16.84;40.80;96377.38;4918035;29;20048;-77
2023/06/13 06:42:27;;;;;;;6.95;2.90;;;;;;;16.91;40.76;96365.94;4918493;29;20056;-77
2023/06/13 06:44:55;;;;;;;6.25;3.30;;;;;;;16.91;40.46;96366.72;4917926;29;20094;-77
2023/06/13 06:47:22;;;;;;;3.58;2.78;;;;;;;16.93;40.70;96374.41;4917840;29;20060;-77
2023/06/13 06:49:50;;;;;;;4.57;2.97;;;;;;;17.00;40.55;96367.19;4917971;29;20063;-77
2023/06/13 06:52:19;;;;;;;3.22;2.70;;;;;;;17.07;40.46;96368.69;4917949;29;20076;-77
2023/06/13 06:54:46;;;;;;;10.27;2.90;;;;;;;17.13;40.12;96360.91;4917984;29;20134;-77
2023/06/13 06:57:14;;;;;;;4.35;3.05;;;;;;;17.17;39.89;96368.13;4917756;29;20103;-77
2023/06/13 06:59:42;;;;;;;3.83;2.88;;;;;;;17.18;39.92;96376.84;4918646;29;20084;-78
2023/06/13 07:02:10;;;;;;;8.27;2.90;;;;;;;17.18;40.16;96380.25;4920810;29;20048;-78
2023/06/13 07:04:37;;;;;;;4.43;3.10;;;;;;;17.24;39.92;96368.81;4919699;29;20056;-80
2023/06/13 07:07:05;;;;;;;4.20;2.80;;;;;;;17.32;39.99;96364.22;4919127;29;20059;-80
2023/06/13 07:09:34;;;;;;;3.10;2.72;;;;;;;17.39;39.83;96371.00;4919824;29;20489;-79
2023/06/13 07:12:02;;;;;;;6.60;3.10;;;;;;;17.48;39.96;96374.06;4918979;29;20410;-78
2023/06/13 07:14:29;;;;;;;7.40;3.13;;;;;;;17.58;40.02;96369.03;4918639;29;20108;-78
2023/06/13 07:16:57;;;;;;;4.90;3.15;;;;;;;17.70;39.76;96366.34;4918337;29;20505;-78
2023/06/13 07:19:24;;;;;;;3.75;2.90;;;;;;;17.80;39.56;96377.13;4918437;29;20134;-78
2023/06/13 07:21:52;;;;;;;4.45;2.67;;;;;;;17.89;39.08;96370.47;4918379;29;20104;-78
2023/06/13 07:24:20;;;;;;;4.78;3.33;;;;;;;18.04;38.78;96383.19;4918489;29;20103;-77
2023/06/13 07:26:49;;;;;;;5.57;3.20;;;;;;;18.16;37.22;96390.25;4918421;29;20140;-78
2023/06/13 07:29:17;;;;;;;6.82;3.13;;;;;;;18.18;37.51;96380.25;4918195;29;20048;-78
2023/06/13 07:31:44;;;;;;;2.50;2.30;;;;;;;18.25;37.21;96386.19;4917615;29;20580;-77
2023/06/13 07:34:12;;;;;;;8.45;3.03;;;;;;;18.36;36.96;96379.28;4918342;29;20427;-78
2023/06/13 07:37:00;;;;;;;3.65;2.60;;;;;;;18.46;36.72;96385.53;4917191;29;20048;-77
2023/06/13 07:39:28;;;;;;;5.65;2.50;;;;;;;18.56;36.03;96376.97;4917249;29;20052;-78
2023/06/13 07:41:57;;;;;;;7.80;2.40;;;;;;;18.66;35.26;96392.22;4917229;29;20056;-77
2023/06/13 07:44:24;;;;;;;5.03;2.85;;;;;;;18.71;34.89;96384.38;4917008;29;20448;-77
2023/06/13 07:46:52;;;;;;;4.10;2.78;;;;;;;18.74;34.48;96374.13;4916730;29;20107;-77
2023/06/13 07:49:20;;;;;;;5.05;2.58;;;;;;;18.82;34.21;96375.59;4918693;29;20052;-77
2023/06/13 07:51:47;;;;;;;4.03;2.50;;;;;;;18.90;33.93;96369.13;4916625;29;20056;-77
2023/06/13 07:54:15;;;;;;;4.78;2.95;;;;;;;18.98;33.93;96381.13;4916598;29;20560;-77
2023/06/13 07:56:44;;;;;;;6.20;2.28;;;;;;;19.05;33.90;96364.09;4916187;29;20044;-77
2023/06/13 07:59:13;;;;;;;4.88;2.40;;;;;;;19.14;33.85;96372.41;4916635;29;20089;-77
2023/06/13 08:01:40;;;;;;;4.60;2.55;;;;;;;19.22;33.52;96373.84;4916671;29;20190;-77
2023/06/13 08:04:08;;;;;;;4.75;2.63;;;;;;;19.29;33.18;96374.50;4916684;29;20052;-77
2023/06/13 08:06:36;;;;;;;4.45;2.20;;;;;;;19.33;33.33;96360.53;4916171;29;20048;-77
2023/06/13 08:09:05;;;;;;;5.57;2.20;;;;;;;19.39;33.38;96366.69;4916256;29;20513;-77
2023/06/13 08:11:33;;;;;;;3.80;2.50;;;;;;;19.48;33.37;96369.72;4916485;29;20059;-77
2023/06/13 08:14:01;;;;;;;6.95;2.47;;;;;;;19.59;33.20;96365.34;4916591;29;20492;-77
2023/06/13 08:16:29;;;;;;;4.93;2.47;;;;;;;19.67;32.99;96363.09;4916308;29;20489;-77
2023/06/13 08:18:57;;;;;;;6.25;2.63;;;;;;;19.71;32.95;96358.94;4928539;29;20218;-77
2023/06/13 08:21:25;;;;;;;5.28;2.30;;;;;;;19.74;32.39;96358.47;4936718;29;20072;-77
2023/06/13 08:23:53;;;;;;;8.50;2.95;;;;;;;19.79;32.14;96355.09;4935807;29;20051;-77
2023/06/13 08:26:22;;;;;;;5.35;2.45;;;;;;;19.85;31.67;96356.72;4920694;29;20120;-77
2023/06/13 08:28:50;;;;;;;3.60;2.53;;;;;;;19.94;31.57;96352.63;4916798;29;20052;-77
2023/06/13 08:31:23;;;;;;;4.55;2.22;;;;;;;20.02;31.84;96358.50;4918254;29;20531;-77
2023/06/13 08:34:12;;;;;;;5.05;2.28;;;;;;;20.06;31.27;96347.19;4917909;29;20055;-77
2023/06/13 08:36:43;;;;;;;4.53;2.65;;;;;;;20.07;31.40;96346.16;4917566;29;20090;-77
2023/06/13 08:39:10;;;;;;;6.82;2.95;;;;;;;20.08;31.16;96341.66;4917590;29;20054;-77
2023/06/13 08:41:39;;;;;;;3.30;2.20;;;;;;;20.10;31.86;96358.88;4930565;29;20090;-79
2023/06/13 08:44:08;;;;;;;4.95;2.22;;;;;;;20.14;31.17;96345.94;4921997;29;20052;-78
2023/06/13 08:46:37;;;;;;;7.15;2.35;;;;;;;20.17;31.04;96348.88;4916780;29;20063;-79
2023/06/13 08:49:05;;;;;;;5.68;2.83;;;;;;;20.25;30.84;96341.56;4917021;29;20052;-78
2023/06/13 08:51:35;;;;;;;5.07;2.45;;;;;;;20.27;30.70;96334.97;4917375;29;20056;-79
2023/06/13 08:54:05;;;;;;;5.47;2.47;;;;;;;20.33;31.00;96338.44;4917182;29;20152;-78
2023/06/13 08:56:36;;;;;;;6.55;2.70;;;;;;;20.40;30.88;96344.34;4916838;29;20052;-79
2023/06/13 08:59:07;;;;;;;4.97;2.30;;;;;;;20.44;30.79;96337.47;4917084;29;20091;-79
2023/06/13 09:01:37;;;;;;;2.95;2.55;;;;;;;20.49;30.76;96332.25;4916764;29;20052;-79
2023/06/13 09:04:07;;;;;;;5.25;2.20;;;;;;;20.56;30.94;96324.88;4916883;29;20079;-78
2023/06/13 09:06:37;;;;;;;4.20;2.45;;;;;;;20.69;30.47;96330.88;4916296;29;20497;-79
2023/06/13 09:09:07;;;;;;;4.18;2.13;;;;;;;20.80;30.35;96327.25;4916554;29;20056;-79
2023/06/13 09:11:35;;;;;;;3.15;2.47;;;;;;;20.88;30.37;96332.09;4909256;29;20432;-79
2023/06/13 09:14:05;;;;;;;4.32;2.88;;;;;;;20.97;30.20;96333.19;4917066;29;20052;-78
2023/06/13 09:16:33;;;;;;;5.20;2.60;;;;;;;21.09;30.33;96329.56;4916897;29;20066;-79
2023/06/13 09:19:01;;;;;;;4.95;2.20;;;;;;;21.22;29.70;96337.06;4916834;29;20079;-79
2023/06/13 09:21:28;;;;;;;5.47;2.40;;;;;;;21.29;29.45;96328.88;4917143;29;20066;-79
2023/06/13 09:23:59;;;;;;;6.55;2.40;;;;;;;21.35;29.28;96333.97;4916248;29;20516;-79
2023/06/13 09:26:27;;;;;;;5.10;2.45;;;;;;;21.44;29.10;96329.00;4916197;29;20508;-79
2023/06/13 09:28:54;;;;;;;8.43;2.70;;;;;;;21.55;29.51;96332.50;4916317;29;20060;-79
2023/06/13 09:31:22;;;;;;;4.05;2.80;;;;;;;21.63;29.42;96334.69;4917088;29;20548;-79
2023/06/13 09:33:50;;;;;;;9.77;2.20;;;;;;;21.69;29.25;96328.34;4917967;29;20056;-79
2023/06/13 09:36:18;;;;;;;8.02;2.50;;;;;;;21.74;29.34;96333.66;4917203;29;20126;-79
2023/06/13 09:38:48;;;;;;;9.48;2.90;;;;;;;21.78;29.66;96332.09;4916189;29;20052;-79
2023/06/13 09:41:21;;;;;;;2.83;1.92;;;;;;;21.88;29.36;96330.53;4916742;29;20114;-79
2023/06/13 09:43:52;;;;;;;4.63;3.35;;;;;;;21.95;29.49;96325.75;4916686;29;20056;-79
2023/06/13 09:46:23;;;;;;;4.93;2.30;;;;;;;22.03;29.12;96322.59;4916146;29;20052;-79
2023/06/13 09:48:51;;;;;;;4.72;2.70;;;;;;;22.12;29.12;96318.38;4916644;29;20052;-78
2023/06/13 09:51:19;;;;;;;7.60;2.50;;;;;;;22.25;28.81;96322.41;4916697;29;20063;-79
2023/06/13 09:53:47;;;;;;;3.30;2.25;;;;;;;22.31;28.15;96321.38;4915880;29;20091;-79
2023/06/13 09:56:16;;;;;;;5.82;2.70;;;;;;;22.29;28.20;96320.03;4918069;29;20044;-79
2023/06/13 09:58:44;;;;;;;5.05;2.85;;;;;;;22.29;28.63;96312.06;4919934;29;20052;-79
2023/06/13 10:01:15;;;;;;;5.20;2.40;;;;;;;22.29;28.50;96304.09;4919394;29;20048;-79
2023/06/13 10:03:43;;;;;;;3.55;2.60;;;;;;;22.34;28.35;96301.44;4919649;29;20063;-79
2023/06/13 10:06:12;;;;;;;7.93;2.60;;;;;;;22.38;28.25;96305.16;4918942;29;20485;-79
2023/06/13 10:08:41;;;;;;;5.20;2.70;;;;;;;22.43;27.80;96305.16;4919128;29;20477;-79
2023/06/13 10:11:11;;;;;;;5.88;2.85;;;;;;;22.47;27.58;96300.91;4919017;29;20489;-79
2023/06/13 10:13:47;;;;;;;8.50;2.65;;;;;;;22.52;26.92;96298.28;4919206;29;20107;-79
2023/06/13 10:16:16;;;;;;;7.50;2.50;;;;;;;22.56;26.67;96311.81;4918933;29;20727;-79
2023/06/13 10:18:47;;;;;;;4.72;2.47;;;;;;;22.57;26.27;96305.47;4918915;29;20058;-79
2023/06/13 10:21:16;;;;;;;5.30;2.67;;;;;;;22.58;26.67;96318.47;4919250;29;20051;-79
2023/06/13 10:23:47;;;;;;;3.90;2.40;;;;;;;22.57;26.78;96311.56;4919201;29;20063;-77
2023/06/13 10:26:21;;;;;;;3.05;2.50;;;;;;;22.59;26.74;96301.47;4918453;29;20059;-79
2023/06/13 10:29:19;;;;;;;5.60;2.50;;;;;;;22.63;26.73;96296.44;4918891;29;20084;-79
2023/06/13 10:32:00;;;;;;;6.70;2.60;;;;;;;22.65;26.82;96301.47;4918926;29;20060;-79
2023/06/13 10:34:45;;;;;;;3.57;2.57;;;;;;;22.69;27.64;96294.56;4919072;29;20476;-79
2023/06/13 10:37:41;;;;;;;5.05;2.70;;;;;;;22.78;27.81;96291.09;4919142;29;20318;-79
2023/06/13 10:40:31;;;;;;;9.23;2.75;;;;;;;22.88;26.95;96290.28;4918903;29;20052;-79
2023/06/13 10:43:05;;;;;;;6.55;2.55;;;;;;;22.98;27.05;96289.47;4919080;29;20500;-79
2023/06/13 10:45:36;;;;;;;4.93;2.75;;;;;;;23.04;25.97;96289.22;4918731;29;20512;-79
2023/06/13 10:48:06;;;;;;;6.05;2.50;;;;;;;23.06;26.95;96298.81;4918323;29;20163;-79
2023/06/13 10:50:37;;;;;;;4.03;2.78;;;;;;;23.03;26.81;96284.97;4910977;29;20048;-79
2023/06/13 10:53:05;;;;;;;4.93;2.70;;;;;;;23.08;26.86;96272.72;4918617;29;20048;-79
2023/06/13 10:55:38;;;;;;;7.90;2.70;;;;;;;23.16;26.42;96296.13;4918347;29;20060;-79
2023/06/13 10:58:12;;;;;;;5.85;2.90;;;;;;;23.17;26.46;96281.75;4918469;29;20096;-79
2023/06/13 11:00:41;;;;;;;4.53;2.60;;;;;;;23.18;26.81;96284.16;4918670;29;20428;-78
2023/06/13 11:03:10;;;;;;;9.88;2.50;;;;;;;23.26;26.40;96280.13;4918499;29;20055;-79
2023/06/13 11:05:48;;;;;;;6.95;3.03;;;;;;;23.31;26.11;96277.47;4918186;29;20087;-79
2023/06/13 11:08:20;;;;;;;5.82;3.58;;;;;;;23.34;26.07;96276.13;4916866;29;20056;-79
2023/06/13 11:10:49;;;;;;;4.00;2.75;;;;;;;23.35;26.07;96273.19;4918087;29;20056;-79
2023/06/13 11:13:20;;;;;;;5.55;3.10;;;;;;;23.40;26.09;96270.50;4918208;29;20527;-79
2023/06/13 11:15:50;;;;;;;9.57;2.80;;;;;;;23.47;25.84;96264.91;4917689;29;20505;-78
2023/06/13 11:18:34;;;;;;;5.32;2.92;;;;;;;23.57;25.68;96269.38;4917648;29;20048;-79
2023/06/13 11:21:03;;;;;;;3.30;2.60;;;;;;;23.59;25.49;96264.56;4917640;29;20051;-79
2023/06/13 11:23:40;;;;;;;4.43;2.50;;;;;;;23.58;25.22;96266.44;4917771;29;20090;-79
2023/06/13 11:26:07;;;;;;;9.13;3.15;;;;;;;23.61;25.92;96255.28;4917710;29;20055;-79
2023/06/13 11:28:35;;;;;;;4.78;2.78;;;;;;;23.66;25.06;96257.09;4917938;29;20048;-79
2023/06/13 11:31:06;;;;;;;4.40;3.00;;;;;;;23.66;25.02;96257.09;4917896;29;20428;-79
2023/06/13 11:33:40;;;;;;;3.83;2.80;;;;;;;23.68;25.43;96262.13;4917851;29;20048;-79
2023/06/13 11:36:08;;;;;;;6.60;2.90;;;;;;;23.68;25.26;96256.81;4917393;29;20067;-79
2023/06/13 11:38:40;;;;;;;7.10;3.03;;;;;;;23.68;25.25;96254.16;4917570;29;20055;-79
2023/06/13 11:41:07;;;;;;;4.00;2.80;;;;;;;23.71;25.43;96249.09;4918344;29;20057;-80
2023/06/13 11:43:35;;;;;;;8.10;2.47;;;;;;;23.72;25.33;96255.97;4919186;29;20048;-80
2023/06/13 11:46:05;;;;;;;7.13;2.70;;;;;;;23.65;25.13;96240.31;4918847;29;20052;-80
2023/06/13 11:48:33;;;;;;;5.05;2.85;;;;;;;23.59;25.10;96235.28;4918106;29;20052;-80